Time;durP1;ratioP1;P1;durP2;ratioP2;P2;SDS_P1;SDS_P2;PMS_P1;PMS_P2;Temp;Humidity;BMP_temperature;BMP_pressure;BME280_temperature;BME280_humidity;BME280_pressure;Samples;Min_cycle;Max_cycle;Signal;HPM_P1;HPM_P2
2021/12/16 00:02:56;;;;;;;1.95;1.40;;;;;;;;;;5073709;28;20052;-71
2021/12/16 00:05:40;;;;;;;2.40;1.40;;;;;;;;;;5066828;28;20132;-71
2021/12/16 00:08:16;;;;;;;3.08;1.50;;;16.50;67.70;;;;;;5053755;28;20045;-71
2021/12/16 00:10:51;;;;;;;2.75;1.58;;;16.00;67.30;;;;;;5053290;28;20084;-71
2021/12/16 00:30:35;;;;;;;3.10;1.58;;;16.40;67.80;;;;;;4995077;28;20050;-71
2021/12/16 00:33:12;;;;;;;3.05;1.80;;;16.40;68.00;;;;;;4995607;28;20061;-71
2021/12/16 00:35:39;;;;;;;2.20;1.58;;;16.50;67.70;;;;;;5032774;28;20052;-71
2021/12/16 00:38:06;;;;;;;3.05;1.38;;;16.20;67.90;;;;;;5053693;28;20052;-71
2021/12/16 00:40:32;;;;;;;2.22;1.50;;;16.30;65.60;;;;;;5057605;28;20119;-71
2021/12/16 00:43:11;;;;;;;3.10;1.80;;;16.40;67.90;;;;;;5072746;28;20131;-71
2021/12/16 00:45:44;;;;;;;2.47;1.60;;;16.30;62.10;;;;;;5072507;28;20394;-71
2021/12/16 00:48:23;;;;;;;3.70;1.70;;;16.10;67.50;;;;;;5072790;28;20083;-71
2021/12/16 00:56:18;;;;;;;1.80;1.48;;;16.20;68.10;;;;;;5061705;28;20045;-71
2021/12/16 00:58:50;;;;;;;2.53;1.50;;;16.10;68.00;;;;;;5052594;28;20060;-71
2021/12/16 01:01:30;;;;;;;2.65;1.60;;;16.20;62.10;;;;;;5052389;28;20057;-71
2021/12/16 01:04:16;;;;;;;2.67;1.50;;;;;;;;;;5052112;28;20060;-71
2021/12/16 01:06:58;;;;;;;3.25;1.42;;;;;;;;;;5052224;28;20044;-70
2021/12/16 01:34:13;;;;;;;2.65;1.83;;;15.60;67.60;;;;;;5071977;28;20044;-71
2021/12/16 01:39:57;;;;;;;2.57;1.40;;;16.10;68.60;;;;;;5071639;28;20444;-71
2021/12/16 01:48:34;;;;;;;3.08;1.70;;;15.70;67.60;;;;;;5071005;28;20060;-71
2021/12/16 01:51:01;;;;;;;2.05;1.40;;;16.20;67.80;;;;;;5072225;28;20052;-71
2021/12/16 01:53:53;;;;;;;2.63;1.60;;;;;;;;;;5071589;28;20514;-71
2021/12/16 01:56:34;;;;;;;3.53;1.50;;;15.60;67.80;;;;;;5071146;28;20044;-71
2021/12/16 01:59:04;;;;;;;1.83;1.35;;;16.30;67.90;;;;;;5072408;28;20048;-71
2021/12/16 02:01:33;;;;;;;3.40;1.80;;;16.20;68.00;;;;;;5071120;28;20052;-72
2021/12/16 02:04:02;;;;;;;4.43;1.80;;;16.20;68.00;;;;;;5061913;28;20063;-72
2021/12/16 02:06:45;;;;;;;2.60;1.48;;;15.90;67.70;;;;;;5051233;28;20184;-71
2021/12/16 02:09:21;;;;;;;3.50;1.40;;;16.10;62.10;;;;;;5052479;28;20045;-71
2021/12/16 02:11:55;;;;;;;2.08;1.73;;;16.10;67.70;;;;;;5051050;28;20122;-72
2021/12/16 02:36:23;;;;;;;2.73;1.50;;;16.00;68.10;;;;;;5020234;28;20057;-71
2021/12/16 02:38:52;;;;;;;2.47;1.45;;;17.60;62.80;;;;;;5051884;28;20072;-71
2021/12/16 02:41:18;;;;;;;2.55;1.60;;;15.90;67.90;;;;;;5051886;28;20542;-70
2021/12/16 02:49:20;;;;;;;2.47;1.50;;;16.10;68.00;;;;;;5050765;28;20060;-71
2021/12/16 02:51:47;;;;;;;2.70;1.80;;;16.80;68.20;;;;;;5051912;28;20049;-71
2021/12/16 02:54:15;;;;;;;3.45;1.52;;;15.50;67.40;;;;;;5051664;28;20053;-71
2021/12/16 02:56:42;;;;;;;2.03;1.40;;;15.80;67.80;;;;;;5050265;28;20049;-71
2021/12/16 02:59:09;;;;;;;2.25;1.65;;;15.60;67.70;;;;;;5050423;28;20128;-71
2021/12/16 03:01:37;;;;;;;3.08;1.50;;;15.70;62.00;;;;;;5051634;28;20132;-72
2021/12/16 03:04:06;;;;;;;2.28;1.40;;;16.00;63.70;;;;;;5050396;28;20088;-72
2021/12/16 03:06:34;;;;;;;2.53;1.60;;;15.60;67.40;;;;;;5050420;28;20056;-72
2021/12/16 03:09:01;;;;;;;2.58;1.60;;;16.60;68.10;;;;;;5050398;28;20446;-72
2021/12/16 03:11:39;;;;;;;2.70;1.60;;;16.00;67.70;;;;;;5051703;28;20136;-72
2021/12/16 03:14:24;;;;;;;2.75;1.50;;;16.10;68.00;;;;;;5050523;28;20119;-71
2021/12/16 03:17:05;;;;;;;3.17;1.75;;;16.10;68.10;;;;;;5050065;28;20053;-72
2021/12/16 03:19:43;;;;;;;3.38;1.60;;;16.00;68.00;;;;;;5050543;28;20095;-70
2021/12/16 03:22:18;;;;;;;3.05;1.60;;;15.60;67.60;;;;;;5050340;28;20057;-71
2021/12/16 03:25:08;;;;;;;3.13;1.60;;;;;;;;;;5050614;28;20053;-72
2021/12/16 03:28:08;;;;;;;2.50;1.55;;;15.70;61.80;;;;;;5056114;28;20041;-72
2021/12/16 03:36:25;;;;;;;2.55;1.60;;;15.40;67.20;;;;;;5042492;28;20067;-73
2021/12/16 03:38:53;;;;;;;3.15;1.80;;;16.00;67.80;;;;;;5076914;28;20098;-73
2021/12/16 03:41:20;;;;;;;2.38;1.52;;;16.00;68.00;;;;;;5076490;28;20071;-73
2021/12/16 03:43:50;;;;;;;2.85;1.70;;;16.00;61.80;;;;;;5068596;28;20104;-72
2021/12/16 03:46:28;;;;;;;2.70;1.67;;;15.80;67.70;;;;;;5055197;28;20055;-73
2021/12/16 03:49:04;;;;;;;2.45;1.50;;;16.00;67.90;;;;;;5055393;28;20479;-70
2021/12/16 03:51:35;;;;;;;3.97;1.80;;;15.60;67.60;;;;;;5053887;28;20059;-72
2021/12/16 03:54:04;;;;;;;4.00;1.77;;;15.70;67.40;;;;;;5053398;28;20136;-70
2021/12/16 03:56:32;;;;;;;2.75;1.58;;;;;;;;;;5053370;28;20532;-72
2021/12/16 03:59:00;;;;;;;1.73;1.35;;;16.00;61.70;;;;;;5068022;28;20470;-72
2021/12/16 04:01:28;;;;;;;2.95;1.50;;;16.00;61.70;;;;;;5073477;28;20135;-72
2021/12/16 04:03:55;;;;;;;3.03;1.67;;;16.90;68.00;;;;;;5073646;28;20593;-72
2021/12/16 04:06:23;;;;;;;2.78;1.60;;;16.00;67.00;;;;;;5073186;28;20052;-71
2021/12/16 04:08:52;;;;;;;2.45;1.58;;;;;;;;;;5073538;28;20136;-72
2021/12/16 04:11:22;;;;;;;4.00;2.08;;;16.10;67.50;;;;;;5073541;28;20062;-71
2021/12/16 04:13:55;;;;;;;3.08;1.77;;;16.10;67.50;;;;;;5071801;28;20485;-71
2021/12/16 04:16:24;;;;;;;3.42;1.60;;;15.20;61.20;;;;;;5072850;28;20424;-71
2021/12/16 04:18:51;;;;;;;3.05;1.75;;;15.40;67.40;;;;;;5074334;28;20049;-71
2021/12/16 04:21:19;;;;;;;2.70;1.80;;;;;;;;;;5073264;28;20135;-71
2021/12/16 04:23:47;;;;;;;2.10;1.52;;;15.50;64.60;;;;;;5074612;28;20055;-71
2021/12/16 04:26:14;;;;;;;3.00;1.60;;;15.80;67.30;;;;;;5072839;28;20485;-71
2021/12/16 04:28:42;;;;;;;2.78;1.55;;;16.80;67.80;;;;;;5073110;28;20140;-71
2021/12/16 04:31:09;;;;;;;3.00;1.70;;;15.70;66.80;;;;;;5065931;28;20052;-71
2021/12/16 04:33:39;;;;;;;2.70;1.73;;;16.00;67.40;;;;;;5053091;28;20136;-70
2021/12/16 04:36:08;;;;;;;2.63;1.70;;;16.10;67.40;;;;;;5052735;28;20069;-70
2021/12/16 04:38:35;;;;;;;2.42;1.58;;;;;;;;;;5051627;28;20064;-72
2021/12/16 04:41:02;;;;;;;4.72;1.83;;;16.40;67.80;;;;;;5052710;28;20048;-70
2021/12/16 04:43:38;;;;;;;2.85;1.70;;;15.40;63.20;;;;;;5052962;28;20153;-71
2021/12/16 04:46:06;;;;;;;4.90;2.00;;;15.70;67.20;;;;;;5052695;28;20057;-70
2021/12/16 04:48:34;;;;;;;4.05;1.90;;;15.50;67.10;;;;;;5065737;28;20120;-73
2021/12/16 04:51:02;;;;;;;4.47;1.90;;;16.00;61.60;;;;;;5074312;28;20144;-72
2021/12/16 04:53:29;;;;;;;3.00;1.58;;;;;;;;;;5074420;28;20053;-71
2021/12/16 04:55:56;;;;;;;2.25;1.52;;;16.10;67.70;;;;;;5074549;28;20108;-73
2021/12/16 04:58:23;;;;;;;3.38;1.60;;;;;;;;;;5072767;28;20170;-72
2021/12/16 05:00:50;;;;;;;3.03;1.65;;;15.80;67.20;;;;;;5072115;28;20062;-72
2021/12/16 05:03:17;;;;;;;3.53;1.70;;;15.90;67.20;;;;;;5073554;28;20128;-72
2021/12/16 05:05:43;;;;;;;4.32;1.60;;;16.00;66.90;;;;;;5070535;28;20044;-72
2021/12/16 05:08:12;;;;;;;3.15;1.60;;;16.00;67.50;;;;;;5072399;28;20139;-72
2021/12/16 05:10:38;;;;;;;3.53;1.77;;;16.00;67.30;;;;;;5072133;28;20063;-71
2021/12/16 05:13:05;;;;;;;2.30;1.63;;;;;;;;;;5073361;28;20197;-72
2021/12/16 05:15:35;;;;;;;4.15;2.00;;;15.90;67.40;;;;;;5071923;28;20098;-72
2021/12/16 05:18:04;;;;;;;3.15;1.80;;;16.00;67.50;;;;;;5071830;28;20068;-72
2021/12/16 05:20:32;;;;;;;3.13;1.83;;;15.90;67.50;;;;;;5073147;28;20048;-69
2021/12/16 05:25:57;;;;;;;2.60;1.70;;;16.30;67.50;;;;;;5071832;28;20610;-71
2021/12/16 05:28:25;;;;;;;3.70;1.70;;;16.60;67.60;;;;;;5072081;28;20052;-71
2021/12/16 05:30:52;;;;;;;3.72;1.70;;;15.50;67.30;;;;;;5071962;28;20496;-71
2021/12/16 05:33:19;;;;;;;3.30;1.67;;;16.00;67.50;;;;;;5071706;28;20060;-71
2021/12/16 05:35:46;;;;;;;2.17;1.60;;;;;;;;;;5070397;28;20080;-71
2021/12/16 05:38:13;;;;;;;2.25;1.48;;;16.00;67.20;;;;;;5062790;28;20135;-71
2021/12/16 05:40:40;;;;;;;2.28;1.50;;;16.00;62.50;;;;;;5059294;28;20110;-70
2021/12/16 05:43:10;;;;;;;3.35;1.80;;;16.10;67.30;;;;;;5052531;28;20127;-70
2021/12/16 05:45:36;;;;;;;2.78;1.70;;;16.20;66.20;;;;;;5052570;28;20076;-71
2021/12/16 05:48:05;;;;;;;3.10;1.77;;;16.30;67.00;;;;;;5051567;28;20470;-71
2021/12/16 05:50:33;;;;;;;4.35;1.80;;;16.20;61.30;;;;;;5052881;28;20049;-71
2021/12/16 05:53:00;;;;;;;3.13;1.65;;;16.30;67.20;;;;;;5051733;28;20490;-73
2021/12/16 05:55:27;;;;;;;2.53;1.67;;;16.30;65.00;;;;;;5058170;28;20135;-72
2021/12/16 05:57:55;;;;;;;2.65;1.67;;;16.40;67.20;;;;;;5059985;28;20049;-73
2021/12/16 06:00:25;;;;;;;2.28;1.67;;;16.30;66.90;;;;;;5065684;28;20063;-73
2021/12/16 06:02:51;;;;;;;3.05;1.80;;;16.60;66.90;;;;;;5071324;28;20052;-73
2021/12/16 06:05:18;;;;;;;2.92;1.80;;;16.50;66.80;;;;;;5071378;28;20540;-73
2021/12/16 06:07:46;;;;;;;3.25;1.60;;;16.30;64.70;;;;;;5080599;28;20083;-72
2021/12/16 06:10:37;;;;;;;1.90;1.40;;;16.30;66.90;;;;;;5083749;28;20250;-70
2021/12/16 06:12:59;;;;;;;2.58;1.60;;;16.30;66.60;;;;;;5083962;28;20108;-72
2021/12/16 06:15:42;;;;;;;3.17;1.60;;;16.30;66.70;;;;;;5084999;28;20049;-73
2021/12/16 06:26:30;;;;;;;4.70;2.10;;;17.10;67.70;;;;;;5062435;28;20056;-69
2021/12/16 06:28:57;;;;;;;2.47;1.60;;;;;;;;;;5061909;28;20121;-72
2021/12/16 06:31:25;;;;;;;3.33;1.73;;;16.80;66.90;;;;;;5045795;28;20060;-69
2021/12/16 06:33:52;;;;;;;2.63;1.60;;;16.70;66.70;;;;;;5061855;28;20048;-69
2021/12/16 06:36:20;;;;;;;2.83;1.60;;;;;;;;;;5058963;28;20096;-72
2021/12/16 06:38:46;;;;;;;2.35;1.42;;;16.80;66.30;;;;;;5060662;28;20048;-69
2021/12/16 06:41:13;;;;;;;4.05;1.60;;;16.10;66.30;;;;;;5061089;28;20144;-71
2021/12/16 06:43:40;;;;;;;2.78;1.67;;;16.10;63.70;;;;;;5060071;28;20128;-71
2021/12/16 06:46:11;;;;;;;3.15;1.65;;;16.70;66.50;;;;;;5048419;28;20053;-71
2021/12/16 06:48:42;;;;;;;2.90;1.67;;;15.90;63.80;;;;;;5061624;28;20060;-71
2021/12/16 06:51:13;;;;;;;3.20;1.90;;;16.40;66.30;;;;;;5063645;28;20053;-72
2021/12/16 06:53:49;;;;;;;2.92;1.60;;;;;;;;;;5068170;28;20059;-70
2021/12/16 06:56:22;;;;;;;3.15;1.55;;;;;;;;;;5070132;28;20048;-71
2021/12/16 06:58:52;;;;;;;2.25;1.65;;;15.80;65.70;;;;;;5066254;28;20460;-73
2021/12/16 07:01:31;;;;;;;3.83;1.50;;;17.00;66.40;;;;;;5070332;28;20095;-73
2021/12/16 07:03:59;;;;;;;3.70;1.88;;;17.00;60.70;;;;;;5073621;28;20051;-72
2021/12/16 07:06:28;;;;;;;2.60;1.60;;;16.80;60.50;;;;;;5068360;28;20137;-70
2021/12/16 07:08:56;;;;;;;3.85;1.60;;;17.00;66.20;;;;;;5069272;28;20131;-72
2021/12/16 07:11:22;;;;;;;3.13;1.50;;;16.80;62.30;;;;;;5071969;28;20069;-73
2021/12/16 07:13:57;;;;;;;2.75;1.75;;;17.00;66.30;;;;;;5068113;28;20529;-73
2021/12/16 07:16:24;;;;;;;2.90;1.60;;;16.90;66.00;;;;;;5069731;28;20139;-73
2021/12/16 07:18:51;;;;;;;3.25;1.77;;;;;;;;;;5058857;28;20084;-71
2021/12/16 07:21:19;;;;;;;3.13;1.80;;;16.90;65.90;;;;;;5056901;28;20135;-71
2021/12/16 07:23:45;;;;;;;3.00;1.85;;;17.20;66.10;;;;;;5054385;28;20516;-71
2021/12/16 07:26:12;;;;;;;3.53;2.00;;;16.60;65.70;;;;;;5053848;28;20067;-71
2021/12/16 07:28:39;;;;;;;2.58;1.60;;;17.20;62.10;;;;;;5054027;28;20131;-71
2021/12/16 07:31:05;;;;;;;5.97;1.73;;;16.30;65.40;;;;;;5053983;28;20131;-72
2021/12/16 07:33:32;;;;;;;3.53;1.75;;;17.00;66.00;;;;;;5064811;28;20544;-71
2021/12/16 07:36:00;;;;;;;2.60;1.60;;;17.70;61.20;;;;;;5074021;28;20136;-71
2021/12/16 07:38:29;;;;;;;5.00;1.83;;;17.10;60.30;;;;;;5073713;28;20049;-71
2021/12/16 07:40:57;;;;;;;3.78;1.95;;;17.10;64.50;;;;;;5068634;28;20409;-72
2021/12/16 07:43:27;;;;;;;2.95;1.80;;;17.10;64.10;;;;;;5073953;28;20497;-72
2021/12/16 07:45:55;;;;;;;4.47;1.70;;;17.20;65.80;;;;;;5073797;28;20057;-72
2021/12/16 07:48:22;;;;;;;2.65;1.63;;;17.30;65.80;;;;;;5065865;28;20506;-72
2021/12/16 07:50:51;;;;;;;2.90;1.60;;;17.30;65.80;;;;;;5061965;28;20132;-72
2021/12/16 07:53:18;;;;;;;4.22;1.80;;;17.90;66.10;;;;;;5068035;28;20132;-70
2021/12/16 07:55:47;;;;;;;4.18;1.90;;;17.30;66.10;;;;;;5073553;28;20135;-70
2021/12/16 07:58:14;;;;;;;3.15;1.70;;;17.30;65.30;;;;;;5073444;28;20048;-70
2021/12/16 08:00:41;;;;;;;5.72;1.80;;;16.20;65.20;;;;;;5073358;28;20124;-70
2021/12/16 08:03:09;;;;;;;3.00;1.60;;;17.20;60.30;;;;;;5061659;28;20063;-74
2021/12/16 08:05:38;;;;;;;26.08;2.65;;;17.10;60.30;;;;;;5063382;28;20449;-72
2021/12/16 08:08:05;;;;;;;3.17;2.00;;;16.70;65.60;;;;;;5053519;28;20045;-72
2021/12/16 08:10:33;;;;;;;3.42;2.10;;;17.00;62.90;;;;;;5053468;28;20457;-71
2021/12/16 08:13:01;;;;;;;2.70;1.65;;;16.50;65.70;;;;;;5052453;28;20605;-72
2021/12/16 08:15:29;;;;;;;2.30;1.55;;;17.20;65.80;;;;;;5053138;28;20148;-72
2021/12/16 08:17:56;;;;;;;2.92;1.80;;;17.30;66.10;;;;;;5052785;28;20098;-73
2021/12/16 08:20:22;;;;;;;4.80;1.80;;;17.40;64.30;;;;;;5053214;28;20053;-74
2021/12/16 08:22:50;;;;;;;2.78;1.60;;;17.60;66.00;;;;;;5054400;28;20041;-74
2021/12/16 08:25:17;;;;;;;3.58;1.77;;;17.30;66.00;;;;;;5059646;28;20044;-73
2021/12/16 08:27:44;;;;;;;3.58;1.73;;;16.40;65.30;;;;;;5058464;28;20049;-74
2021/12/16 08:30:14;;;;;;;2.50;1.80;;;16.50;65.50;;;;;;5054281;28;20115;-74
2021/12/16 08:32:41;;;;;;;3.40;1.85;;;17.20;65.20;;;;;;5073910;28;20135;-74
2021/12/16 08:35:08;;;;;;;6.57;2.10;;;16.90;65.80;;;;;;5063989;28;20132;-74
2021/12/16 08:37:35;;;;;;;5.30;1.60;;;16.10;65.40;;;;;;5056566;28;20478;-73
2021/12/16 08:40:02;;;;;;;2.47;1.48;;;17.90;66.10;;;;;;5062119;28;20128;-73
2021/12/16 08:42:29;;;;;;;3.72;1.80;;;17.00;65.50;;;;;;5064213;28;20142;-73
2021/12/16 08:44:56;;;;;;;3.03;1.85;;;17.70;66.30;;;;;;5062205;28;20120;-74
2021/12/16 08:47:24;;;;;;;2.92;1.77;;;17.10;60.30;;;;;;5061580;28;20492;-72
2021/12/16 08:49:51;;;;;;;3.80;1.90;;;16.30;61.80;;;;;;5064160;28;20055;-74
2021/12/16 08:52:20;;;;;;;4.10;1.90;;;17.00;60.30;;;;;;5060945;28;20075;-72
2021/12/16 08:54:47;;;;;;;3.15;1.58;;;16.10;65.60;;;;;;5063726;28;20128;-70
2021/12/16 08:57:14;;;;;;;4.40;1.90;;;16.90;65.80;;;;;;5059315;28;20049;-68
2021/12/16 08:59:40;;;;;;;3.78;1.55;;;17.00;66.00;;;;;;5055547;28;20084;-68
2021/12/16 09:02:08;;;;;;;4.53;1.83;;;15.80;65.70;;;;;;5052595;28;20080;-69
2021/12/16 09:04:37;;;;;;;3.78;2.00;;;16.00;65.50;;;;;;5052398;28;20426;-68
2021/12/16 09:07:06;;;;;;;2.95;1.77;;;17.30;66.20;;;;;;5054942;28;20135;-68
2021/12/16 09:09:35;;;;;;;4.13;1.83;;;17.40;66.30;;;;;;5069281;28;20132;-68
2021/12/16 09:12:08;;;;;;;2.67;1.60;;;;;;;;;;5063749;28;20059;-73
2021/12/16 09:14:35;;;;;;;3.90;1.95;;;16.80;66.40;;;;;;5072184;28;20503;-70
2021/12/16 09:17:02;;;;;;;3.40;1.88;;;17.30;66.40;;;;;;5072058;28;20059;-67
2021/12/16 09:19:28;;;;;;;3.85;1.80;;;17.40;66.40;;;;;;5071962;28;20549;-70
2021/12/16 09:21:56;;;;;;;3.95;1.88;;;16.20;65.80;;;;;;5072990;28;20132;-74
2021/12/16 09:24:23;;;;;;;3.35;1.90;;;16.80;66.40;;;;;;5076409;28;20092;-73
2021/12/16 09:26:50;;;;;;;4.03;1.90;;;16.80;62.30;;;;;;5072843;28;20143;-73
2021/12/16 09:29:17;;;;;;;3.00;1.80;;;16.90;66.30;;;;;;5070436;28;20127;-74
2021/12/16 09:31:43;;;;;;;4.55;1.90;;;16.70;66.40;;;;;;5061640;28;20140;-74
2021/12/16 09:34:10;;;;;;;5.78;1.80;;;16.80;62.30;;;;;;5052048;28;20151;-72
2021/12/16 09:36:40;;;;;;;4.75;1.80;;;16.60;66.20;;;;;;5053696;28;20144;-74
2021/12/16 09:39:12;;;;;;;2.90;1.90;;;15.80;65.90;;;;;;5052791;28;20063;-74
2021/12/16 09:41:40;;;;;;;4.85;1.88;;;16.50;66.40;;;;;;5054408;28;20057;-74
2021/12/16 09:44:06;;;;;;;3.78;1.95;;;16.60;61.50;;;;;;5073316;28;20139;-74
2021/12/16 09:46:33;;;;;;;4.93;2.20;;;17.50;66.70;;;;;;5074531;28;20174;-74
2021/12/16 09:49:00;;;;;;;4.32;2.00;;;16.40;66.20;;;;;;5073981;28;20048;-74
2021/12/16 09:51:28;;;;;;;2.90;1.80;;;17.40;63.70;;;;;;5074497;28;20132;-75
2021/12/16 09:53:57;;;;;;;2.80;2.10;;;16.50;61.00;;;;;;5072522;28;20048;-74
2021/12/16 09:56:25;;;;;;;3.08;2.03;;;16.50;66.20;;;;;;5071708;28;20481;-75
2021/12/16 09:58:52;;;;;;;3.95;1.83;;;16.60;66.30;;;;;;5072150;28;20072;-70
2021/12/16 10:01:19;;;;;;;4.10;1.88;;;16.50;66.40;;;;;;5063472;28;20123;-72
2021/12/16 10:03:47;;;;;;;3.88;2.28;;;16.50;66.30;;;;;;5051358;28;20052;-71
2021/12/16 10:06:14;;;;;;;3.38;1.98;;;16.40;66.30;;;;;;5050968;28;20475;-70
2021/12/16 10:08:41;;;;;;;5.53;2.28;;;16.40;64.50;;;;;;5051216;28;20135;-74
2021/12/16 10:11:08;;;;;;;3.13;2.20;;;16.20;66.50;;;;;;5051389;28;20088;-76
2021/12/16 10:13:44;;;;;;;5.15;2.20;;;16.40;60.80;;;;;;5050980;28;20148;-76
2021/12/16 10:18:55;;;;;;;3.15;2.15;;;16.40;66.70;;;;;;5050741;28;20440;-73
2021/12/16 10:21:22;;;;;;;4.97;2.38;;;15.70;61.20;;;;;;5051021;28;20136;-74
2021/12/16 10:23:49;;;;;;;5.50;1.80;;;16.40;66.70;;;;;;5050883;28;20048;-73
2021/12/16 10:26:17;;;;;;;4.70;1.85;;;16.50;65.60;;;;;;5050870;28;20140;-73
2021/12/16 10:28:46;;;;;;;3.83;2.10;;;17.30;64.00;;;;;;5050864;28;20147;-73
2021/12/16 10:31:14;;;;;;;4.68;2.70;;;16.40;66.50;;;;;;5050936;28;20139;-73
2021/12/16 10:33:42;;;;;;;3.65;2.15;;;16.70;67.00;;;;;;5050982;28;20537;-73
2021/12/16 10:36:14;;;;;;;4.50;2.72;;;16.50;66.60;;;;;;5050272;28;20059;-73
2021/12/16 10:38:42;;;;;;;3.55;2.03;;;16.40;66.80;;;;;;5050605;28;20051;-73
2021/12/16 10:41:10;;;;;;;4.15;2.10;;;15.80;66.30;;;;;;5050893;28;20573;-73
2021/12/16 10:43:38;;;;;;;5.10;2.58;;;16.10;66.50;;;;;;5050870;28;20561;-73
2021/12/16 10:46:08;;;;;;;5.82;2.40;;;16.70;66.70;;;;;;5050606;28;20045;-73
2021/12/16 10:48:35;;;;;;;4.82;2.35;;;16.40;66.80;;;;;;5050962;28;20114;-73
2021/12/16 10:51:16;;;;;;;5.60;2.17;;;16.40;61.00;;;;;;5051219;28;20084;-75
2021/12/16 10:54:04;;;;;;;4.47;2.13;;;16.50;64.70;;;;;;5050766;28;20057;-74
2021/12/16 10:56:34;;;;;;;4.18;2.33;;;16.50;66.70;;;;;;5050305;28;20099;-73
2021/12/16 10:59:02;;;;;;;4.72;2.28;;;16.70;66.70;;;;;;5050723;28;20073;-73
2021/12/16 11:01:40;;;;;;;5.57;2.50;;;16.20;66.60;;;;;;5053120;28;20080;-72
2021/12/16 11:04:08;;;;;;;4.72;2.55;;;16.50;61.00;;;;;;5060505;28;20152;-76
2021/12/16 11:06:36;;;;;;;6.25;2.25;;;16.40;63.70;;;;;;5051697;28;20412;-73
2021/12/16 11:09:30;;;;;;;5.35;2.28;;;16.50;64.70;;;;;;5064961;28;20143;-73
2021/12/16 11:12:17;;;;;;;4.72;2.50;;;16.70;66.80;;;;;;5056994;28;20144;-73
2021/12/16 11:14:45;;;;;;;4.40;2.60;;;16.50;66.70;;;;;;5060426;28;20132;-74
2021/12/16 11:17:15;;;;;;;6.22;3.00;;;16.60;66.50;;;;;;5055556;28;20137;-70
2021/12/16 11:19:46;;;;;;;5.35;2.65;;;16.50;60.80;;;;;;5061815;28;20089;-71
2021/12/16 11:22:15;;;;;;;5.28;2.58;;;16.80;62.50;;;;;;5059775;28;20127;-68
2021/12/16 11:24:41;;;;;;;3.85;2.53;;;16.20;66.10;;;;;;5051837;28;20049;-69
2021/12/16 11:27:27;;;;;;;5.75;2.60;;;16.60;66.40;;;;;;5065591;28;20041;-68
2021/12/16 11:29:53;;;;;;;;;;;16.60;61.20;;;;;;5070790;28;20147;-67
2021/12/16 11:32:52;;;;;;;4.93;2.70;;;16.70;66.40;;;;;;5070241;28;20007;-70
2021/12/16 11:35:41;;;;;;;5.03;2.30;;;16.70;66.60;;;;;;4993453;28;20132;-71
2021/12/16 11:38:13;;;;;;;6.20;2.35;;;17.50;66.60;;;;;;5060682;28;20135;-73
2021/12/16 11:41:09;;;;;;;4.20;2.35;;;16.60;66.40;;;;;;5062799;28;20120;-73
2021/12/16 11:43:57;;;;;;;7.20;2.75;;;16.20;66.20;;;;;;5071560;28;20048;-74
2021/12/16 11:46:27;;;;;;;3.92;2.22;;;16.80;60.80;;;;;;5070228;28;20576;-73
2021/12/16 11:48:57;;;;;;;3.28;2.17;;;16.60;60.60;;;;;;5073061;28;20041;-73
2021/12/16 11:51:25;;;;;;;4.22;2.30;;;16.60;66.20;;;;;;5073683;28;20131;-73
2021/12/16 11:53:53;;;;;;;5.25;3.13;;;16.80;60.70;;;;;;5065300;28;20044;-74
2021/12/16 11:56:20;;;;;;;5.03;2.60;;;16.90;66.40;;;;;;5063434;28;20147;-74
2021/12/16 11:58:47;;;;;;;4.88;3.00;;;16.80;66.10;;;;;;5061664;28;20051;-74
2021/12/16 12:01:16;;;;;;;4.45;2.50;;;16.80;61.70;;;;;;5061491;28;20048;-73
2021/12/16 12:03:43;;;;;;;3.28;2.40;;;16.80;66.20;;;;;;5066641;28;20067;-74
2021/12/16 12:06:20;;;;;;;4.25;2.58;;;16.60;66.10;;;;;;5064731;28;20132;-74
2021/12/16 12:08:47;;;;;;;3.80;2.45;;;16.60;66.10;;;;;;5061025;28;20048;-74
2021/12/16 12:11:16;;;;;;;3.65;2.53;;;16.70;60.70;;;;;;5069121;28;20053;-72
2021/12/16 12:13:44;;;;;;;5.00;2.80;;;16.40;66.20;;;;;;5063033;28;20439;-73
2021/12/16 12:16:13;;;;;;;5.22;2.47;;;16.80;66.40;;;;;;5063695;28;20131;-73
2021/12/16 12:18:41;;;;;;;5.05;2.60;;;16.80;66.20;;;;;;5062316;28;20050;-74
2021/12/16 12:21:25;;;;;;;4.45;2.50;;;16.70;66.40;;;;;;5060313;28;20051;-74
2021/12/16 12:23:53;;;;;;;3.53;2.35;;;17.20;66.70;;;;;;5057743;28;20085;-74
2021/12/16 12:26:20;;;;;;;5.35;2.40;;;16.50;66.20;;;;;;5053156;28;20143;-71
2021/12/16 12:28:49;;;;;;;5.75;2.90;;;16.80;63.30;;;;;;5053270;28;20632;-72
2021/12/16 12:31:21;;;;;;;5.05;2.38;;;16.90;66.50;;;;;;5053094;28;20053;-76
2021/12/16 12:33:48;;;;;;;4.72;2.70;;;17.40;66.60;;;;;;5071609;28;20045;-72
2021/12/16 12:36:15;;;;;;;4.72;2.35;;;16.70;66.30;;;;;;5067416;28;20058;-71
2021/12/16 12:38:43;;;;;;;4.50;2.60;;;16.30;66.20;;;;;;5068308;28;20477;-72
2021/12/16 12:41:10;;;;;;;4.22;2.72;;;16.70;66.30;;;;;;5057319;28;20056;-72
2021/12/16 12:43:37;;;;;;;4.75;3.03;;;16.70;66.30;;;;;;5054015;28;20330;-72
2021/12/16 12:46:12;;;;;;;3.65;2.75;;;16.70;66.50;;;;;;5053608;28;20053;-72
2021/12/16 12:48:39;;;;;;;4.32;3.10;;;16.70;66.30;;;;;;5052772;28;20053;-72
2021/12/16 12:51:06;;;;;;;3.50;2.70;;;16.50;66.10;;;;;;5052690;28;20081;-71
2021/12/16 12:53:35;;;;;;;4.88;2.70;;;16.70;66.40;;;;;;5066784;28;20091;-71
2021/12/16 12:56:11;;;;;;;4.05;2.60;;;16.70;66.50;;;;;;5073333;28;20131;-71
2021/12/16 12:58:52;;;;;;;5.68;2.53;;;16.70;66.10;;;;;;5072002;28;20055;-71
2021/12/16 13:01:21;;;;;;;4.38;2.65;;;17.20;66.80;;;;;;5073529;28;20143;-72
2021/12/16 13:03:48;;;;;;;4.07;2.45;;;;;;;;;;5072440;28;20480;-70
2021/12/16 13:06:16;;;;;;;3.65;2.67;;;16.70;66.10;;;;;;5072119;28;20687;-72
2021/12/16 13:08:44;;;;;;;4.40;2.60;;;16.70;66.00;;;;;;5071578;28;20102;-72
2021/12/16 13:11:14;;;;;;;7.35;3.05;;;16.70;66.00;;;;;;5053392;28;20049;-71
2021/12/16 13:14:06;;;;;;;5.45;2.72;;;16.70;65.90;;;;;;5053387;28;20048;-71
2021/12/16 13:16:59;;;;;;;3.92;2.88;;;16.60;66.10;;;;;;5051965;28;20585;-72
2021/12/16 13:26:01;;;;;;;4.40;3.08;;;16.80;61.20;;;;;;4975204;28;20046;-71
2021/12/16 13:28:40;;;;;;;3.78;2.80;;;15.90;65.50;;;;;;5051623;28;20306;-72
2021/12/16 13:31:30;;;;;;;4.65;2.80;;;16.50;65.70;;;;;;5051897;28;20057;-71
2021/12/16 13:33:59;;;;;;;4.68;2.80;;;16.70;65.70;;;;;;5051987;28;20458;-68
2021/12/16 13:36:42;;;;;;;5.20;2.78;;;16.40;65.70;;;;;;5051606;28;20395;-68
2021/12/16 13:39:13;;;;;;;4.82;2.58;;;16.70;60.30;;;;;;5051558;28;20081;-71
2021/12/16 13:41:57;;;;;;;4.50;2.50;;;16.90;66.00;;;;;;5051415;28;20048;-68
2021/12/16 13:45:00;;;;;;;5.28;2.67;;;16.10;65.70;;;;;;5067305;28;20143;-68
2021/12/16 13:47:40;;;;;;;4.35;3.00;;;16.00;65.60;;;;;;5070942;28;20083;-68
2021/12/16 14:01:57;;;;;;;3.80;2.67;;;17.40;60.60;;;;;;5045783;28;20049;-69
2021/12/16 14:04:51;;;;;;;5.22;2.65;;;16.70;65.70;;;;;;5052583;28;20068;-68
2021/12/16 14:07:40;;;;;;;4.30;2.65;;;16.20;65.40;;;;;;5051021;28;20057;-68
2021/12/16 14:10:17;;;;;;;5.18;3.00;;;17.00;66.00;;;;;;5051192;28;20494;-68
2021/12/16 14:16:38;;;;;;;4.63;2.58;;;17.40;66.10;;;;;;5013100;28;20046;-70
2021/12/16 14:25:02;;;;;;;4.72;3.13;;;16.80;65.80;;;;;;5071064;28;20410;-70
2021/12/16 14:39:16;;;;;;;6.10;3.22;;;16.90;65.60;;;;;;5014597;28;20057;-69
2021/12/16 14:41:49;;;;;;;6.85;3.28;;;16.90;65.90;;;;;;5051756;28;20049;-69
2021/12/16 14:47:13;;;;;;;4.78;3.30;;;16.80;66.20;;;;;;5010226;28;20053;-71
2021/12/16 14:49:46;;;;;;;5.97;3.30;;;16.20;60.80;;;;;;5059668;28;20079;-71
2021/12/16 14:52:16;;;;;;;8.82;3.35;;;16.90;65.80;;;;;;5061920;28;20094;-70
2021/12/16 14:54:49;;;;;;;6.88;3.38;;;16.90;64.40;;;;;;5043881;28;20044;-71
2021/12/16 14:57:20;;;;;;;5.72;3.42;;;16.10;65.50;;;;;;5059112;28;20549;-70
2021/12/16 14:59:46;;;;;;;4.85;3.03;;;16.90;65.70;;;;;;5060624;28;20044;-70
2021/12/16 15:02:14;;;;;;;7.53;3.53;;;16.90;65.70;;;;;;5060688;28;20057;-71
2021/12/16 15:04:41;;;;;;;6.43;3.75;;;16.70;65.70;;;;;;5060005;28;20131;-70
2021/12/16 15:07:10;;;;;;;5.97;3.28;;;16.90;65.60;;;;;;5059958;28;20127;-71
2021/12/16 15:09:40;;;;;;;5.38;3.17;;;16.70;63.90;;;;;;5061165;28;20048;-71
2021/12/16 15:12:13;;;;;;;5.28;3.00;;;16.90;65.90;;;;;;5059075;28;20048;-71
2021/12/16 15:14:55;;;;;;;6.43;3.47;;;17.30;65.90;;;;;;5059857;28;20045;-71
2021/12/16 15:17:41;;;;;;;5.25;3.28;;;16.80;65.60;;;;;;5055520;28;20049;-70
2021/12/16 15:36:49;;;;;;;5.38;3.50;;;16.90;66.30;;;;;;5073884;28;19963;-71
2021/12/16 15:39:41;;;;;;;6.82;3.70;;;16.60;66.10;;;;;;5073788;28;20056;-71
2021/12/16 15:44:58;;;;;;;9.90;4.57;;;16.70;66.30;;;;;;5070476;28;20087;-71
2021/12/16 15:47:25;;;;;;;8.68;3.95;;;17.00;63.80;;;;;;5053624;28;20482;-71
2021/12/16 15:49:52;;;;;;;8.35;3.72;;;16.90;67.40;;;;;;5053302;28;20128;-71
2021/12/16 15:52:19;;;;;;;7.82;3.72;;;17.60;67.90;;;;;;5053796;28;20139;-71
2021/12/16 15:54:50;;;;;;;11.32;4.25;;;;;;;;;;5055167;28;20055;-71
2021/12/16 15:57:21;;;;;;;12.98;4.70;;;16.80;68.60;;;;;;5057921;28;20486;-71
2021/12/16 16:02:28;;;;;;;8.95;3.78;;;;;;;;;;5060498;28;20056;-71
2021/12/16 16:04:55;;;;;;;5.75;3.53;;;17.00;68.80;;;;;;5062177;28;20486;-71